Time;durP1;ratioP1;P1;durP2;ratioP2;P2;SDS_P1;SDS_P2;PMS_P1;PMS_P2;Temp;Humidity;BMP_temperature;BMP_pressure;BME280_temperature;BME280_humidity;BME280_pressure;Samples;Min_cycle;Max_cycle;Signal;HPM_P1;HPM_P2
2022/08/10 00:01:03;;;;;;;32.08;30.42;;;;;;;;;;5062656;28;20028;-57
2022/08/10 00:03:29;;;;;;;41.45;39.33;;;;;;;;;;5062759;28;20067;-57
2022/08/10 00:05:55;;;;;;;28.13;26.65;;;;;;;;;;5066536;28;20090;-57
2022/08/10 00:08:23;;;;;;;35.55;33.72;;;;;;;;;;5064335;28;20058;-57
2022/08/10 00:10:49;;;;;;;27.10;25.67;;;;;;;;;;5062379;28;20038;-57
2022/08/10 00:13:15;;;;;;;31.95;30.30;;;;;;;;;;5064410;28;20025;-57
2022/08/10 00:15:40;;;;;;;29.15;27.58;;;;;;;;;;5060283;28;20040;-57
2022/08/10 00:18:05;;;;;;;29.98;28.42;;;;;;;;;;5060270;28;20025;-58
2022/08/10 00:20:31;;;;;;;30.15;28.45;;;;;;;;;;5063648;28;20028;-58
2022/08/10 00:22:57;;;;;;;26.67;25.27;;;;;;;;;;5059751;28;20032;-58
2022/08/10 00:25:22;;;;;;;30.58;29.00;;;;;;;;;;5057346;28;20047;-57
2022/08/10 00:27:47;;;;;;;25.00;23.65;;;;;;;;;;5058737;28;20482;-55
2022/08/10 00:30:13;;;;;;;31.70;29.92;;;;;;;;;;5060501;28;20513;-56
2022/08/10 00:32:38;;;;;;;40.33;38.22;;;;;;;;;;5062567;28;20369;-58
2022/08/10 00:35:04;;;;;;;47.15;44.50;;;;;;;;;;5062073;28;20555;-58
2022/08/10 00:37:29;;;;;;;33.45;31.67;;;;;;;;;;5060777;28;20115;-59
2022/08/10 00:39:54;;;;;;;46.03;43.72;;;;;;;;;;5065810;28;20043;-58
2022/08/10 00:42:20;;;;;;;45.78;43.42;;;;;;;;;;5060470;28;20430;-58
2022/08/10 00:44:51;;;;;;;32.58;30.17;;;;;;;;;;5060872;28;20253;-58
2022/08/10 00:47:18;;;;;;;47.25;44.88;;;;;;;;;;5064676;28;20393;-58
2022/08/10 00:49:44;;;;;;;35.30;33.30;;;;;;;;;;5062891;28;20033;-58
2022/08/10 00:52:12;;;;;;;50.42;47.88;;;;;;;;;;5059119;28;20024;-59
2022/08/10 00:54:38;;;;;;;35.13;33.33;;;;;;;;;;5060657;28;20055;-58
2022/08/10 00:57:04;;;;;;;49.15;46.67;;;;;;;;;;5060693;28;20028;-58
2022/08/10 00:59:31;;;;;;;46.67;44.30;;;;;;;;;;5062651;28;20029;-58
2022/08/10 01:01:57;;;;;;;40.80;38.65;;;;;;;;;;5064552;28;20060;-59
2022/08/10 01:04:22;;;;;;;38.67;36.67;;;;;;;;;;5058734;28;20064;-58
2022/08/10 01:07:02;;;;;;;44.42;42.15;;;;;;;;;;5058005;28;20351;-59
2022/08/10 01:09:36;;;;;;;39.58;37.55;;;;;;;;;;5060402;28;20081;-59
2022/08/10 01:12:15;;;;;;;45.42;42.92;;;;;;;;;;5064276;28;20024;-59
2022/08/10 01:14:50;;;;;;;39.80;37.75;;;;;;;;;;5058488;28;20064;-59
2022/08/10 01:17:27;;;;;;;41.33;39.20;;;;;;;;;;5060223;28;20039;-59
2022/08/10 01:20:05;;;;;;;41.00;38.90;;;;;;;;;;5062061;28;20032;-59
2022/08/10 01:23:03;;;;;;;37.55;35.00;;;;;;;;;;5063546;28;20289;-59
2022/08/10 01:25:55;;;;;;;37.65;35.70;;;;;;;;;;5059737;28;20033;-58
2022/08/10 01:29:02;;;;;;;35.65;33.80;;;;;;;;;;5057571;28;20090;-58
2022/08/10 01:31:36;;;;;;;30.83;29.25;;;;;;;;;;5058762;28;20031;-58
2022/08/10 01:34:06;;;;;;;27.83;26.38;;;;;;;;;;5064055;28;20013;-58
2022/08/10 01:36:42;;;;;;;32.13;30.45;;;;;;;;;;5059016;28;20489;-58
2022/08/10 01:39:11;;;;;;;34.45;32.65;;;;;;;;;;5061617;28;20040;-58
2022/08/10 01:41:41;;;;;;;34.20;32.40;;;;;;;;;;5060735;28;20032;-58
2022/08/10 01:44:12;;;;;;;29.60;28.02;;;;;;;;;;5066449;28;20021;-58
2022/08/10 01:46:41;;;;;;;26.48;25.08;;;;;;;;;;5067581;28;20036;-58
2022/08/10 01:49:10;;;;;;;29.40;27.83;;;;;;;;;;5064804;28;20032;-58
2022/08/10 01:51:48;;;;;;;28.30;26.80;;;;;;;;;;5063493;28;20190;-57
2022/08/10 01:54:21;;;;;;;24.30;22.98;;;;;;;;;;5061919;28;20492;-58
2022/08/10 01:56:51;;;;;;;27.20;25.77;;;;;;;;;;5067939;28;20029;-57
2022/08/10 01:59:35;;;;;;;24.77;23.42;;;;;;;;;;5062589;28;20255;-58
2022/08/10 02:02:03;;;;;;;21.85;20.63;;;;;;;;;;5062943;28;20029;-57
2022/08/10 02:04:33;;;;;;;26.35;24.88;;;;;;;;;;5062286;28;20047;-57
2022/08/10 02:07:00;;;;;;;21.98;20.77;;;;;;;;;;5061438;28;20028;-57
2022/08/10 02:09:29;;;;;;;24.77;23.45;;;;;;;;;;5062598;28;20016;-57
2022/08/10 02:11:59;;;;;;;22.33;21.02;;;;;;;;;;5063571;28;20693;-57
2022/08/10 02:14:32;;;;;;;21.40;20.20;;;;;;;;;;5061768;28;20048;-57
2022/08/10 02:16:59;;;;;;;18.15;17.15;;;;;;;;;;5064383;28;20112;-57
2022/08/10 02:19:27;;;;;;;13.55;12.75;;;;;;;;;;5064111;28;20064;-57
2022/08/10 02:21:53;;;;;;;16.00;15.10;;;;;;;;;;5065888;28;20208;-58
2022/08/10 02:24:20;;;;;;;18.40;15.88;;;;;;;;;;5064901;28;20334;-57
2022/08/10 02:26:47;;;;;;;11.18;10.48;;;;;;;;;;5061139;28;20063;-57
2022/08/10 02:29:15;;;;;;;13.75;12.98;;;;;;;;;;5064871;28;20029;-57
2022/08/10 02:31:42;;;;;;;13.05;12.13;;;;;;;;;;5057177;28;20646;-58
2022/08/10 02:34:10;;;;;;;12.10;11.38;;;;;;;;;;5056892;28;20036;-58
2022/08/10 02:36:41;;;;;;;9.98;9.38;;;;;;;;;;5060491;28;20043;-57
2022/08/10 02:39:08;;;;;;;8.52;7.97;;;;;;;;;;5062661;28;20048;-57
2022/08/10 02:41:42;;;;;;;7.95;7.45;;;;;;;;;;5065529;28;20456;-58
2022/08/10 02:44:28;;;;;;;7.40;6.88;;;;;;;;;;5063512;28;20028;-58
2022/08/10 02:47:02;;;;;;;7.78;7.28;;;;;;;;;;5063459;28;20166;-56
2022/08/10 02:49:50;;;;;;;6.35;5.95;;;;;;;;;;5058695;28;20028;-58
2022/08/10 02:52:23;;;;;;;6.82;6.32;;;;;;;;;;5058950;28;20035;-58
2022/08/10 02:55:00;;;;;;;6.13;5.72;;;;;;;;;;5059243;28;20048;-58
2022/08/10 02:57:35;;;;;;;6.28;5.88;;;;;;;;;;5064773;28;20109;-58
2022/08/10 03:00:03;;;;;;;6.35;5.85;;;;;;;;;;5060487;28;20028;-58
2022/08/10 03:02:41;;;;;;;6.63;6.13;;;;;;;;;;5063498;28;20174;-57
2022/08/10 03:05:10;;;;;;;6.80;6.30;;;;;;;;;;5060452;28;20025;-58
2022/08/10 03:07:42;;;;;;;6.43;5.97;;;;;;;;;;5059495;28;20029;-58
2022/08/10 03:10:17;;;;;;;6.75;6.25;;;;;;;;;;5057390;28;20045;-58
2022/08/10 03:12:45;;;;;;;7.10;6.60;;;;;;;;;;5060526;28;20037;-56
2022/08/10 03:15:13;;;;;;;7.07;6.57;;;;;;;;;;5063511;28;20435;-56
2022/08/10 03:17:39;;;;;;;6.63;6.18;;;;;;;;;;5061624;28;20048;-57
2022/08/10 03:20:06;;;;;;;7.43;6.93;;;;;;;;;;5059462;28;20033;-57
2022/08/10 03:22:32;;;;;;;7.45;6.95;;;;;;;;;;5063861;28;20626;-57
2022/08/10 03:24:59;;;;;;;18.00;7.13;;;;;;;;;;5061964;28;20044;-57
2022/08/10 03:27:25;;;;;;;6.50;6.00;;;;;;;;;;5062598;28;20457;-57
2022/08/10 03:29:50;;;;;;;6.72;6.22;;;;;;;;;;5056829;28;20102;-57
2022/08/10 03:32:18;;;;;;;7.32;6.72;;;;;;;;;;5061761;28;20025;-57
2022/08/10 03:34:43;;;;;;;7.30;6.80;;;;;;;;;;5062952;28;20043;-57
2022/08/10 03:37:09;;;;;;;7.38;6.80;;;;;;;;;;5057657;28;20107;-57
2022/08/10 03:39:34;;;;;;;7.53;7.03;;;;;;;;;;5063820;28;20025;-55
2022/08/10 03:42:04;;;;;;;7.30;6.60;;;;;;;;;;5063632;28;20508;-57
2022/08/10 03:44:32;;;;;;;8.20;7.60;;;;;;;;;;5059649;28;20029;-57
2022/08/10 03:47:02;;;;;;;7.97;7.43;;;;;;;;;;5058602;28;20036;-57
2022/08/10 03:49:29;;;;;;;7.18;6.68;;;;;;;;;;5061931;28;20103;-56
2022/08/10 03:51:57;;;;;;;6.88;6.38;;;;;;;;;;5063398;28;20032;-56
2022/08/10 03:54:23;;;;;;;8.40;7.60;;;;;;;;;;5060770;28;20037;-57
2022/08/10 03:56:49;;;;;;;7.15;6.38;;;;;;;;;;5067638;28;20036;-56
2022/08/10 03:59:15;;;;;;;7.30;6.80;;;;;;;;;;5063085;28;20500;-56
2022/08/10 04:01:42;;;;;;;7.80;6.28;;;;;;;;;;5064173;28;20032;-56
2022/08/10 04:04:07;;;;;;;8.25;7.75;;;;;;;;;;5062597;28;20278;-56
2022/08/10 04:06:33;;;;;;;6.28;5.82;;;;;;;;;;5065103;28;20055;-55
2022/08/10 04:08:58;;;;;;;8.23;7.63;;;;;;;;;;5062815;28;20357;-55
2022/08/10 04:11:23;;;;;;;6.72;6.22;;;;;;;;;;5065294;28;20378;-56
2022/08/10 04:13:49;;;;;;;7.43;6.93;;;;;;;;;;5062842;28;20068;-55
2022/08/10 04:16:14;;;;;;;7.78;7.28;;;;;;;;;;5066368;28;20020;-56
2022/08/10 04:18:39;;;;;;;7.32;6.82;;;;;;;;;;5062221;28;20029;-56
2022/08/10 04:21:13;;;;;;;8.00;7.50;;;;;;;;;;5060622;28;20040;-56
2022/08/10 04:23:44;;;;;;;9.10;8.50;;;;;;;;;;5065592;28;20036;-56
2022/08/10 04:26:10;;;;;;;8.88;8.27;;;;;;;;;;5062454;28;20028;-55
2022/08/10 04:28:36;;;;;;;8.07;7.57;;;;;;;;;;5063674;28;20029;-56
2022/08/10 04:31:04;;;;;;;8.40;7.82;;;;;;;;;;5065508;28;20052;-56
2022/08/10 04:33:31;;;;;;;8.25;7.75;;;;;;;;;;5063733;28;20139;-56
2022/08/10 04:35:58;;;;;;;11.05;9.05;;;;;;;;;;5077708;28;20050;-56
2022/08/10 04:38:25;;;;;;;7.80;7.30;;;;;;;;;;5061509;28;20051;-56
2022/08/10 04:40:50;;;;;;;8.23;7.72;;;;;;;;;;5060782;28;20458;-56
2022/08/10 04:43:17;;;;;;;8.45;7.90;;;;;;;;;;5060943;28;20034;-56
2022/08/10 04:45:43;;;;;;;8.82;8.23;;;;;;;;;;5063855;28;20072;-56
2022/08/10 04:48:08;;;;;;;8.13;7.63;;;;;;;;;;5064307;28;20090;-56
2022/08/10 04:50:33;;;;;;;8.00;7.40;;;;;;;;;;5062458;28;20033;-56
2022/08/10 04:52:59;;;;;;;9.75;9.15;;;;;;;;;;5060094;28;20612;-56
2022/08/10 04:55:24;;;;;;;8.93;8.32;;;;;;;;;;5059288;28;20486;-56
2022/08/10 04:57:50;;;;;;;8.45;7.88;;;;;;;;;;5062795;28;20113;-55
2022/08/10 05:00:15;;;;;;;8.05;7.55;;;;;;;;;;5062158;28;20462;-57
2022/08/10 05:02:40;;;;;;;9.40;8.80;;;;;;;;;;5061188;28;20060;-56
2022/08/10 05:05:06;;;;;;;9.98;9.38;;;;;;;;;;5062852;28;20028;-57
2022/08/10 05:07:32;;;;;;;9.75;9.10;;;;;;;;;;5061199;28;20063;-56
2022/08/10 05:09:57;;;;;;;8.05;7.55;;;;;;;;;;5062019;28;20446;-56
2022/08/10 05:12:23;;;;;;;9.05;8.45;;;;;;;;;;5058490;28;20033;-56
2022/08/10 05:14:50;;;;;;;8.25;7.55;;;;;;;;;;5060364;28;20113;-56
2022/08/10 05:17:16;;;;;;;7.68;7.18;;;;;;;;;;5056677;28;20457;-56
2022/08/10 05:19:42;;;;;;;7.88;7.38;;;;;;;;;;5065365;28;20588;-56
2022/08/10 05:22:07;;;;;;;8.27;7.78;;;;;;;;;;5059343;28;20047;-57
2022/08/10 05:24:33;;;;;;;7.82;7.15;;;;;;;;;;5057556;28;20035;-55
2022/08/10 05:26:58;;;;;;;8.93;8.32;;;;;;;;;;5062005;28;20421;-57
2022/08/10 05:29:23;;;;;;;8.73;8.07;;;;;;;;;;5056972;28;20021;-57
2022/08/10 05:31:49;;;;;;;7.82;7.22;;;;;;;;;;5063297;28;20029;-56
2022/08/10 05:34:15;;;;;;;6.85;6.35;;;;;;;;;;5059103;28;20033;-61
2022/08/10 05:36:41;;;;;;;7.85;7.35;;;;;;;;;;5062383;28;20037;-60
2022/08/10 05:39:08;;;;;;;8.25;7.45;;;;;;;;;;5062333;28;20089;-60
2022/08/10 05:41:34;;;;;;;7.90;7.40;;;;;;;;;;5063068;28;20119;-60
2022/08/10 05:43:59;;;;;;;8.30;7.68;;;;;;;;;;5060183;28;20554;-60
2022/08/10 05:46:25;;;;;;;8.45;7.85;;;;;;;;;;5056731;28;20036;-60
2022/08/10 05:48:50;;;;;;;7.38;6.88;;;;;;;;;;5061293;28;20075;-59
2022/08/10 05:51:17;;;;;;;7.10;6.60;;;;;;;;;;5060244;28;20028;-60
2022/08/10 05:53:43;;;;;;;7.88;7.18;;;;;;;;;;5062894;28;20035;-60
2022/08/10 05:56:09;;;;;;;7.60;7.10;;;;;;;;;;5057804;28;20032;-60
2022/08/10 05:58:35;;;;;;;7.22;6.72;;;;;;;;;;5059762;28;20379;-60
2022/08/10 06:01:04;;;;;;;7.50;7.00;;;;;;;;;;5063922;28;20143;-60
2022/08/10 06:03:35;;;;;;;6.65;6.15;;;;;;;;;;5061406;28;20046;-60
2022/08/10 06:06:02;;;;;;;7.78;7.28;;;;;;;;;;5063765;28;20024;-60
2022/08/10 06:08:31;;;;;;;6.85;6.35;;;;;;;;;;5062167;28;20165;-60
2022/08/10 06:11:00;;;;;;;7.32;6.82;;;;;;;;;;5056712;28;20462;-60
2022/08/10 06:16:12;;;;;;;6.75;6.25;;;;;;;;;;5057116;28;20122;-61
2022/08/10 06:18:38;;;;;;;8.07;7.57;;;;;;;;;;5060537;28;20493;-61
2022/08/10 06:21:05;;;;;;;7.93;7.43;;;;;;;;;;5060473;28;20044;-60
2022/08/10 06:23:32;;;;;;;7.90;7.40;;;;;;;;;;5057175;28;20488;-58
2022/08/10 06:25:58;;;;;;;9.15;8.55;;;;;;;;;;5061109;28;20058;-58
2022/08/10 06:28:25;;;;;;;17.27;16.30;;;;;;;;;;5055553;28;20075;-57
2022/08/10 06:30:53;;;;;;;26.08;24.70;;;;;;;;;;5057665;28;20082;-58
2022/08/10 06:33:21;;;;;;;14.43;13.60;;;;;;;;;;5059957;28;20100;-58
2022/08/10 06:35:52;;;;;;;28.48;26.92;;;;;;;;;;5058551;28;20529;-57
2022/08/10 06:38:18;;;;;;;34.90;33.10;;;;;;;;;;5058986;28;20060;-58
2022/08/10 06:40:47;;;;;;;32.83;31.15;;;;;;;;;;5060419;28;20078;-59
2022/08/10 06:43:17;;;;;;;39.92;37.92;;;;;;;;;;5066670;28;20532;-60
2022/08/10 06:45:46;;;;;;;40.75;38.70;;;;;;;;;;5063927;28;20028;-60
2022/08/10 06:48:32;;;;;;;36.45;34.55;;;;;;;;;;5059040;28;20036;-60
2022/08/10 06:51:00;;;;;;;39.78;37.75;;;;;;;;;;5059869;28;20029;-60
2022/08/10 06:53:35;;;;;;;41.40;39.30;;;;;;;;;;5064271;28;20215;-59
2022/08/10 06:56:05;;;;;;;40.38;38.28;;;;;;;;;;5059943;28;20033;-60
2022/08/10 06:58:35;;;;;;;36.27;34.40;;;;;;;;;;5060047;28;20032;-60
2022/08/10 07:01:03;;;;;;;;;;;;;;;;;;5063248;28;20639;-60
2022/08/10 07:03:35;;;;;;;30.08;28.48;;;;;;;;;;5067723;28;19916;-60
2022/08/10 07:06:03;;;;;;;36.03;34.13;;;;;;;;;;5059031;28;20033;-60
2022/08/10 07:08:32;;;;;;;38.28;36.33;;;;;;;;;;5064010;28;20039;-60
2022/08/10 07:11:00;;;;;;;37.90;35.95;;;;;;;;;;5063796;28;20020;-61
2022/08/10 07:13:27;;;;;;;35.50;33.70;;;;;;;;;;5059337;28;20067;-60
2022/08/10 07:15:54;;;;;;;37.33;35.42;;;;;;;;;;5061568;28;20041;-61
2022/08/10 07:18:20;;;;;;;31.60;29.90;;;;;;;;;;5065511;28;20104;-60
2022/08/10 07:20:47;;;;;;;35.40;33.60;;;;;;;;;;5064504;28;20120;-60
2022/08/10 07:23:13;;;;;;;35.83;33.97;;;;;;;;;;5060987;28;20586;-60
2022/08/10 07:25:41;;;;;;;35.05;33.28;;;;;;;;;;5065328;28;20041;-60
2022/08/10 07:28:07;;;;;;;38.67;36.67;;;;;;;;;;5064431;28;20025;-60
2022/08/10 07:30:37;;;;;;;34.83;32.97;;;;;;;;;;5066577;28;20516;-60
2022/08/10 07:33:04;;;;;;;35.40;33.60;;;;;;;;;;5063975;28;20044;-60
2022/08/10 07:35:31;;;;;;;37.25;35.35;;;;;;;;;;5062237;28;20044;-60
2022/08/10 07:37:58;;;;;;;40.42;38.38;;;;;;;;;;5068207;28;20033;-60
2022/08/10 07:40:24;;;;;;;34.45;32.65;;;;;;;;;;5061474;28;20039;-60
2022/08/10 07:42:55;;;;;;;37.22;35.33;;;;;;;;;;5068017;28;20417;-60
2022/08/10 07:45:20;;;;;;;45.35;43.05;;;;;;;;;;5064770;28;20044;-60
2022/08/10 07:48:01;;;;;;;40.60;38.53;;;;;;;;;;5061139;28;20037;-60
2022/08/10 07:50:28;;;;;;;51.03;48.45;;;;;;;;;;5067927;28;20051;-61
2022/08/10 07:52:58;;;;;;;45.13;42.67;;;;;;;;;;5062697;28;20086;-60
2022/08/10 07:55:24;;;;;;;29.80;28.23;;;;;;;;;;5059891;28;20033;-60
2022/08/10 07:57:53;;;;;;;35.53;33.70;;;;;;;;;;5059710;28;20046;-61
2022/08/10 08:00:18;;;;;;;55.08;52.17;;;;;;;;;;5065185;28;20024;-60
2022/08/10 08:02:49;;;;;;;47.10;44.70;;;;;;;;;;5067838;28;20040;-61
2022/08/10 08:05:15;;;;;;;35.80;33.90;;;;;;;;;;5067265;28;20032;-60
2022/08/10 08:07:43;;;;;;;31.00;29.10;;;;;;;;;;5062103;28;20403;-60
2022/08/10 08:10:13;;;;;;;33.85;32.10;;;;;;;;;;5060776;28;20032;-59
2022/08/10 08:12:40;;;;;;;35.33;33.53;;;;;;;;;;5060483;28;20029;-59
2022/08/10 08:15:08;;;;;;;34.67;32.85;;;;;;;;;;5061606;28;20067;-60
2022/08/10 08:17:36;;;;;;;40.90;38.70;;;;;;;;;;5065768;28;20040;-61
2022/08/10 08:20:02;;;;;;;43.05;40.85;;;;;;;;;;5063090;28;20420;-61
2022/08/10 08:22:28;;;;;;;39.88;37.83;;;;;;;;;;5066166;28;20504;-61
2022/08/10 08:24:55;;;;;;;45.00;42.72;;;;;;;;;;5062374;28;20135;-61
2022/08/10 08:27:22;;;;;;;49.13;46.60;;;;;;;;;;5058579;28;20453;-60
2022/08/10 08:29:49;;;;;;;58.88;55.95;;;;;;;;;;5066028;28;20060;-60
2022/08/10 08:32:21;;;;;;;53.65;50.95;;;;;;;;;;5060824;28;20400;-61
2022/08/10 08:34:49;;;;;;;56.47;53.65;;;;;;;;;;5065090;28;20081;-61
2022/08/10 08:37:16;;;;;;;63.22;60.05;;;;;;;;;;5066348;28;20390;-61
2022/08/10 08:39:42;;;;;;;63.60;60.45;;;;;;;;;;5064059;28;20033;-61
2022/08/10 08:42:25;;;;;;;72.40;68.82;;;;;;;;;;5067236;28;20028;-60
2022/08/10 08:45:12;;;;;;;71.63;68.10;;;;;;;;;;5059419;28;20162;-60
2022/08/10 08:48:07;;;;;;;67.95;64.55;;;;;;;;;;5054348;28;20583;-60
2022/08/10 08:50:47;;;;;;;68.20;64.80;;;;;;;;;;5061580;28;20541;-60
2022/08/10 08:53:36;;;;;;;66.15;62.88;;;;;;;;;;5063374;28;20102;-60
2022/08/10 08:56:12;;;;;;;66.78;63.47;;;;;;;;;;5054229;28;20033;-60
2022/08/10 08:59:13;;;;;;;76.13;72.32;;;;;;;;;;5055473;28;20087;-60
2022/08/10 09:01:56;;;;;;;69.65;66.18;;;;;;;;;;5062276;28;20512;-60
2022/08/10 09:04:41;;;;;;;73.38;69.70;;;;;;;;;;5060210;28;20028;-60
2022/08/10 09:07:37;;;;;;;83.35;79.18;;;;;;;;;;5060695;28;20108;-60
2022/08/10 09:10:18;;;;;;;76.93;73.10;;;;;;;;;;5069088;28;20033;-60
2022/08/10 09:13:00;;;;;;;76.47;72.28;;;;;;;;;;5067407;28;20634;-62
2022/08/10 09:15:37;;;;;;;75.13;71.43;;;;;;;;;;5064381;28;20462;-62
2022/08/10 09:18:17;;;;;;;84.75;80.55;;;;;;;;;;5069922;28;20036;-61
2022/08/10 09:21:01;;;;;;;69.75;66.25;;;;;;;;;;5073478;28;20405;-61
2022/08/10 09:23:46;;;;;;;115.35;109.65;;;;;;;;;;5058117;28;20033;-61
2022/08/10 09:26:21;;;;;;;117.57;111.80;;;;;;;;;;5067363;28;20043;-61
2022/08/10 09:28:48;;;;;;;109.22;103.82;;;;;;;;;;5066291;28;20044;-61
2022/08/10 09:31:19;;;;;;;122.15;116.13;;;;;;;;;;5056894;28;20027;-61
2022/08/10 09:33:56;;;;;;;114.53;108.88;;;;;;;;;;5057580;28;20520;-61
2022/08/10 09:36:29;;;;;;;131.27;124.82;;;;;;;;;;5063141;28;20056;-60
2022/08/10 09:39:12;;;;;;;126.00;119.80;;;;;;;;;;5064395;28;20076;-60
2022/08/10 09:42:17;;;;;;;113.22;107.63;;;;;;;;;;5057764;28;20045;-60
2022/08/10 09:44:54;;;;;;;121.43;115.43;;;;;;;;;;5063760;28;20040;-60
2022/08/10 09:47:31;;;;;;;136.20;129.50;;;;;;;;;;5068160;28;20325;-59
2022/08/10 09:50:18;;;;;;;135.52;128.82;;;;;;;;;;5055870;28;20286;-62
2022/08/10 09:52:50;;;;;;;128.40;122.10;;;;;;;;;;5067019;28;20133;-59
2022/08/10 09:55:34;;;;;;;138.63;131.75;;;;;;;;;;5078938;28;20035;-60
2022/08/10 09:58:25;;;;;;;124.05;117.95;;;;;;;;;;5056179;28;20039;-59
2022/08/10 10:00:58;;;;;;;198.07;188.32;;;;;;;;;;5062038;28;20035;-60
2022/08/10 10:03:43;;;;;;;166.13;157.90;;;;;;;;;;5064267;28;20044;-60
2022/08/10 10:06:25;;;;;;;241.05;229.27;;;;;;;;;;5061666;28;20037;-59
2022/08/10 10:08:59;;;;;;;208.25;198.05;;;;;;;;;;5061608;28;20078;-59
2022/08/10 10:11:40;;;;;;;206.05;195.93;;;;;;;;;;5062762;28;20029;-62
2022/08/10 10:14:34;;;;;;;226.45;215.35;;;;;;;;;;5064416;28;20058;-60
2022/08/10 10:17:09;;;;;;;156.60;148.88;;;;;;;;;;5065708;28;20506;-57
2022/08/10 10:20:08;;;;;;;213.27;202.82;;;;;;;;;;5057557;28;20111;-57
2022/08/10 10:23:12;;;;;;;254.38;241.98;;;;;;;;;;5064099;28;20044;-57
2022/08/10 10:25:55;;;;;;;283.38;269.50;;;;;;;;;;5059631;28;20245;-58
2022/08/10 10:28:46;;;;;;;308.40;293.17;;;;;;;;;;5062629;28;20045;-58
2022/08/10 10:31:23;;;;;;;318.23;302.52;;;;;;;;;;5061419;28;20032;-56
2022/08/10 10:33:59;;;;;;;321.35;305.45;;;;;;;;;;5061180;28;20494;-57
2022/08/10 10:36:26;;;;;;;311.23;295.83;;;;;;;;;;5061642;28;20414;-57
2022/08/10 10:38:54;;;;;;;328.88;312.48;;;;;;;;;;5063247;28;20094;-57
2022/08/10 10:41:49;;;;;;;256.35;243.80;;;;;;;;;;5058330;28;20643;-56
2022/08/10 10:44:35;;;;;;;306.38;291.15;;;;;;;;;;5057981;28;20029;-58
2022/08/10 10:47:12;;;;;;;280.10;266.27;;;;;;;;;;5035553;28;20052;-56
2022/08/10 10:50:01;;;;;;;300.80;285.92;;;;;;;;;;5060303;28;20025;-57
2022/08/10 10:52:37;;;;;;;237.93;226.32;;;;;;;;;;5065419;28;20690;-58
2022/08/10 10:55:35;;;;;;;332.23;315.58;;;;;;;;;;5063810;28;20513;-57
2022/08/10 10:58:26;;;;;;;253.88;241.40;;;;;;;;;;5059474;28;20031;-58
2022/08/10 11:01:14;;;;;;;306.92;291.65;;;;;;;;;;5063616;28;20047;-58
2022/08/10 11:04:17;;;;;;;341.23;324.13;;;;;;;;;;5061899;28;20044;-58
2022/08/10 11:07:03;;;;;;;393.80;373.63;;;;;;;;;;5061223;28;20102;-58
2022/08/10 11:09:47;;;;;;;394.50;374.30;;;;;;;;;;5061358;28;20040;-58
2022/08/10 11:12:29;;;;;;;407.92;386.83;;;;;;;;;;5063105;28;20051;-57
2022/08/10 11:15:05;;;;;;;402.33;381.45;;;;;;;;;;5063859;28;20048;-59
2022/08/10 11:17:39;;;;;;;406.23;385.40;;;;;;;;;;5057617;28;20098;-58
2022/08/10 11:20:13;;;;;;;423.30;401.25;;;;;;;;;;5067808;28;20033;-57
2022/08/10 11:22:57;;;;;;;413.42;392.05;;;;;;;;;;5060643;28;20035;-58
2022/08/10 11:25:37;;;;;;;410.60;389.48;;;;;;;;;;5059608;28;20104;-57
2022/08/10 11:28:08;;;;;;;384.13;364.60;;;;;;;;;;5062457;28;20036;-57
2022/08/10 11:30:56;;;;;;;393.30;373.23;;;;;;;;;;5064938;28;20116;-57
2022/08/10 11:33:24;;;;;;;372.02;353.17;;;;;;;;;;5059813;28;20120;-57
2022/08/10 11:35:55;;;;;;;349.23;331.80;;;;;;;;;;5059487;28;20036;-59
2022/08/10 11:38:29;;;;;;;337.58;320.77;;;;;;;;;;5058336;28;20097;-59
2022/08/10 11:40:54;;;;;;;358.55;340.50;;;;;;;;;;5057779;28;20032;-60
2022/08/10 11:43:27;;;;;;;352.13;334.55;;;;;;;;;;5061076;28;20031;-60
2022/08/10 11:46:18;;;;;;;394.25;374.15;;;;;;;;;;5062067;28;20056;-59
2022/08/10 11:48:55;;;;;;;338.85;321.90;;;;;;;;;;5065194;28;20667;-61
2022/08/10 11:51:55;;;;;;;368.67;350.17;;;;;;;;;;5060128;28;20101;-61
2022/08/10 11:54:25;;;;;;;;;;;;;;;;;;5035396;28;20032;-60
2022/08/10 11:56:53;;;;;;;382.85;363.40;;;;;;;;;;5062575;28;20286;-60
2022/08/10 12:02:09;;;;;;;407.25;386.42;;;;;;;;;;5065055;28;20043;-60
2022/08/10 12:04:37;;;;;;;413.25;391.98;;;;;;;;;;5064989;28;20420;-59
2022/08/10 12:07:04;;;;;;;413.10;391.75;;;;;;;;;;5055569;28;20036;-60
2022/08/10 12:09:31;;;;;;;364.45;346.15;;;;;;;;;;5063273;28;20029;-60
2022/08/10 12:12:01;;;;;;;377.25;358.13;;;;;;;;;;5057562;28;20036;-60
2022/08/10 12:14:33;;;;;;;359.48;341.33;;;;;;;;;;5065708;28;20028;-59
2022/08/10 12:17:03;;;;;;;364.95;346.75;;;;;;;;;;5064074;28;20112;-60
2022/08/10 12:19:48;;;;;;;417.48;395.75;;;;;;;;;;5062567;28;20033;-62
2022/08/10 12:22:19;;;;;;;375.52;356.58;;;;;;;;;;5068389;28;20616;-59
2022/08/10 12:24:55;;;;;;;310.92;295.60;;;;;;;;;;5068439;28;20525;-59
2022/08/10 12:27:29;;;;;;;350.65;333.08;;;;;;;;;;5067314;28;20039;-59
2022/08/10 12:30:05;;;;;;;316.95;301.33;;;;;;;;;;5069688;28;20063;-59
2022/08/10 12:32:53;;;;;;;338.70;321.85;;;;;;;;;;5066859;28;20028;-59
2022/08/10 12:35:30;;;;;;;358.10;340.17;;;;;;;;;;5066328;28;20028;-59
2022/08/10 12:38:05;;;;;;;271.05;257.85;;;;;;;;;;5067887;28;20545;-63
2022/08/10 12:40:38;;;;;;;281.60;267.83;;;;;;;;;;5062477;28;20062;-60
2022/08/10 12:43:24;;;;;;;353.67;335.95;;;;;;;;;;5059213;28;20269;-60
2022/08/10 12:46:05;;;;;;;367.38;348.98;;;;;;;;;;5060714;28;20020;-60
2022/08/10 12:48:52;;;;;;;352.38;334.73;;;;;;;;;;5061009;28;20039;-60
2022/08/10 12:51:27;;;;;;;329.38;313.10;;;;;;;;;;5060814;28;20039;-59
2022/08/10 12:54:12;;;;;;;371.88;353.17;;;;;;;;;;5064028;28;20024;-59
2022/08/10 12:56:44;;;;;;;360.30;342.17;;;;;;;;;;5063028;28;20047;-59
2022/08/10 12:59:11;;;;;;;282.42;268.58;;;;;;;;;;5059304;28;20025;-59
2022/08/10 13:01:38;;;;;;;324.98;308.83;;;;;;;;;;5059674;28;20058;-59
2022/08/10 13:04:11;;;;;;;267.40;254.38;;;;;;;;;;5060521;28;20659;-60
2022/08/10 13:06:44;;;;;;;232.18;220.82;;;;;;;;;;5060330;28;20149;-60
2022/08/10 13:09:14;;;;;;;194.00;184.45;;;;;;;;;;5064733;28;20789;-60
2022/08/10 13:11:45;;;;;;;227.13;216.05;;;;;;;;;;5058662;28;20044;-59
2022/08/10 13:14:19;;;;;;;153.05;145.50;;;;;;;;;;5063079;28;20039;-60
2022/08/10 13:16:46;;;;;;;182.30;173.40;;;;;;;;;;5060451;28;20028;-60
2022/08/10 13:19:14;;;;;;;174.80;166.23;;;;;;;;;;5058478;28;20028;-61
2022/08/10 13:21:42;;;;;;;263.85;251.07;;;;;;;;;;5063129;28;20624;-59
2022/08/10 13:24:16;;;;;;;204.13;194.18;;;;;;;;;;5044994;28;20491;-59
2022/08/10 13:26:54;;;;;;;192.63;183.20;;;;;;;;;;5063745;28;20137;-61
2022/08/10 13:29:21;;;;;;;322.40;306.52;;;;;;;;;;5060556;28;20028;-59
2022/08/10 13:31:48;;;;;;;218.93;208.25;;;;;;;;;;5061620;28;20541;-61
2022/08/10 13:34:28;;;;;;;197.35;187.73;;;;;;;;;;5061539;28;20082;-59
2022/08/10 13:36:56;;;;;;;166.00;157.88;;;;;;;;;;5061561;28;20033;-59
2022/08/10 13:39:24;;;;;;;188.70;179.50;;;;;;;;;;5062135;28;20053;-59
2022/08/10 13:41:52;;;;;;;169.32;161.02;;;;;;;;;;5059916;28;20687;-59
2022/08/10 13:44:30;;;;;;;206.65;196.55;;;;;;;;;;5057789;28;20037;-60
2022/08/10 13:46:56;;;;;;;245.07;233.15;;;;;;;;;;5058319;28;20060;-60
2022/08/10 13:49:22;;;;;;;201.25;191.45;;;;;;;;;;5062006;28;20067;-59
2022/08/10 13:51:49;;;;;;;168.05;159.75;;;;;;;;;;5060151;28;20067;-59
2022/08/10 13:54:16;;;;;;;159.57;151.73;;;;;;;;;;5059256;28;20047;-58
2022/08/10 13:56:45;;;;;;;128.82;122.50;;;;;;;;;;5062109;28;20536;-60
2022/08/10 13:59:13;;;;;;;157.40;149.63;;;;;;;;;;5060465;28;20097;-57
2022/08/10 14:01:39;;;;;;;120.72;114.72;;;;;;;;;;5058592;28;20121;-58
2022/08/10 14:04:09;;;;;;;157.30;149.00;;;;;;;;;;5059703;28;20159;-58
2022/08/10 14:06:38;;;;;;;130.45;124.00;;;;;;;;;;5060865;28;20025;-59
2022/08/10 14:09:11;;;;;;;214.10;203.73;;;;;;;;;;5061429;28;20529;-58
2022/08/10 14:11:39;;;;;;;100.43;95.47;;;;;;;;;;5062582;28;20365;-58
2022/08/10 14:14:08;;;;;;;143.07;136.05;;;;;;;;;;5060579;28;20024;-58
2022/08/10 14:16:39;;;;;;;116.70;110.95;;;;;;;;;;5062368;28;20038;-60
2022/08/10 14:19:11;;;;;;;148.70;141.38;;;;;;;;;;5057676;28;20025;-61
2022/08/10 14:21:38;;;;;;;106.13;100.90;;;;;;;;;;5058706;28;20455;-60
2022/08/10 14:24:04;;;;;;;123.50;117.43;;;;;;;;;;5061309;28;20055;-59
2022/08/10 14:26:31;;;;;;;171.85;163.40;;;;;;;;;;5060316;28;20036;-59
2022/08/10 14:29:02;;;;;;;135.93;129.25;;;;;;;;;;5061165;28;20525;-59
2022/08/10 14:31:32;;;;;;;210.52;200.25;;;;;;;;;;5062977;28;20203;-59
2022/08/10 14:33:59;;;;;;;242.98;231.05;;;;;;;;;;5060227;28;20075;-60
2022/08/10 14:36:40;;;;;;;176.75;168.02;;;;;;;;;;5062794;28;20055;-60
2022/08/10 14:39:07;;;;;;;178.30;169.57;;;;;;;;;;5062452;28;20028;-60
2022/08/10 14:41:35;;;;;;;139.38;132.30;;;;;;;;;;5059813;28;20094;-61
2022/08/10 14:44:08;;;;;;;142.77;135.63;;;;;;;;;;5060785;28;20017;-59
2022/08/10 14:46:37;;;;;;;142.93;135.82;;;;;;;;;;5058301;28;20550;-59
2022/08/10 14:49:03;;;;;;;;;;;;;;;;;;5060261;28;20451;-59